sensor_id;sensor_type;location;lat;lon;timestamp;temperature;humidity
65478;SHT31;53678;39.642;22.430;2023-07-20T00:00:06;28.13;56.55
65478;SHT31;53678;39.642;22.430;2023-07-20T00:02:38;28.16;56.34
65478;SHT31;53678;39.642;22.430;2023-07-20T00:05:04;27.99;56.86
65478;SHT31;53678;39.642;22.430;2023-07-20T00:07:30;28.14;56.55
65478;SHT31;53678;39.642;22.430;2023-07-20T00:09:55;28.27;56.16
65478;SHT31;53678;39.642;22.430;2023-07-20T00:12:21;28.24;55.83
65478;SHT31;53678;39.642;22.430;2023-07-20T00:14:47;28.36;55.82
65478;SHT31;53678;39.642;22.430;2023-07-20T00:17:12;28.44;55.67
65478;SHT31;53678;39.642;22.430;2023-07-20T00:19:38;28.44;55.63
65478;SHT31;53678;39.642;22.430;2023-07-20T00:22:04;28.46;55.51
65478;SHT31;53678;39.642;22.430;2023-07-20T00:24:30;28.51;55.72
65478;SHT31;53678;39.642;22.430;2023-07-20T00:26:56;28.68;55.30
65478;SHT31;53678;39.642;22.430;2023-07-20T00:29:22;28.59;55.19
65478;SHT31;53678;39.642;22.430;2023-07-20T00:31:47;28.41;55.12
65478;SHT31;53678;39.642;22.430;2023-07-20T00:34:13;28.33;55.84
65478;SHT31;53678;39.642;22.430;2023-07-20T00:36:39;28.50;55.52
65478;SHT31;53678;39.642;22.430;2023-07-20T00:39:06;28.35;56.34
65478;SHT31;53678;39.642;22.430;2023-07-20T00:41:31;28.57;55.51
65478;SHT31;53678;39.642;22.430;2023-07-20T00:43:58;28.50;55.49
65478;SHT31;53678;39.642;22.430;2023-07-20T00:46:24;28.70;54.96
65478;SHT31;53678;39.642;22.430;2023-07-20T00:48:51;28.80;54.55
65478;SHT31;53678;39.642;22.430;2023-07-20T00:51:18;29.01;54.72
65478;SHT31;53678;39.642;22.430;2023-07-20T00:53:45;28.80;55.19
65478;SHT31;53678;39.642;22.430;2023-07-20T00:56:11;28.98;54.55
65478;SHT31;53678;39.642;22.430;2023-07-20T00:58:37;29.16;54.16
65478;SHT31;53678;39.642;22.430;2023-07-20T01:01:03;29.23;54.10
65478;SHT31;53678;39.642;22.430;2023-07-20T01:03:29;29.33;54.23
65478;SHT31;53678;39.642;22.430;2023-07-20T01:11:31;28.99;55.93
65478;SHT31;53678;39.642;22.430;2023-07-20T01:13:59;29.07;55.42
65478;SHT31;53678;39.642;22.430;2023-07-20T01:16:25;28.90;56.28
65478;SHT31;53678;39.642;22.430;2023-07-20T01:18:50;28.90;56.18
65478;SHT31;53678;39.642;22.430;2023-07-20T01:21:26;29.01;55.99
65478;SHT31;53678;39.642;22.430;2023-07-20T01:24:32;28.98;55.35
65478;SHT31;53678;39.642;22.430;2023-07-20T01:32:17;28.77;55.91
65478;SHT31;53678;39.642;22.430;2023-07-20T01:34:47;28.60;55.83
65478;SHT31;53678;39.642;22.430;2023-07-20T01:37:15;28.49;55.81
65478;SHT31;53678;39.642;22.430;2023-07-20T01:39:42;28.44;55.69
65478;SHT31;53678;39.642;22.430;2023-07-20T01:42:08;28.36;55.53
65478;SHT31;53678;39.642;22.430;2023-07-20T01:44:34;28.43;55.20
65478;SHT31;53678;39.642;22.430;2023-07-20T01:47:00;28.37;55.36
65478;SHT31;53678;39.642;22.430;2023-07-20T01:49:25;28.33;55.84
65478;SHT31;53678;39.642;22.430;2023-07-20T01:51:51;28.29;55.93
65478;SHT31;53678;39.642;22.430;2023-07-20T01:54:17;28.16;56.15
65478;SHT31;53678;39.642;22.430;2023-07-20T01:56:43;28.23;55.99
65478;SHT31;53678;39.642;22.430;2023-07-20T01:59:09;28.03;56.56
65478;SHT31;53678;39.642;22.430;2023-07-20T02:01:34;27.92;56.96
65478;SHT31;53678;39.642;22.430;2023-07-20T02:04:00;27.86;57.32
65478;SHT31;53678;39.642;22.430;2023-07-20T02:06:26;27.93;57.21
65478;SHT31;53678;39.642;22.430;2023-07-20T02:08:51;27.92;57.48
65478;SHT31;53678;39.642;22.430;2023-07-20T02:11:17;27.93;57.34
65478;SHT31;53678;39.642;22.430;2023-07-20T02:13:43;27.96;57.01
65478;SHT31;53678;39.642;22.430;2023-07-20T02:16:08;28.10;56.64
65478;SHT31;53678;39.642;22.430;2023-07-20T02:18:34;28.20;56.33
65478;SHT31;53678;39.642;22.430;2023-07-20T02:21:02;28.19;55.85
65478;SHT31;53678;39.642;22.430;2023-07-20T02:23:28;28.32;55.61
65478;SHT31;53678;39.642;22.430;2023-07-20T02:25:53;28.35;55.40
65478;SHT31;53678;39.642;22.430;2023-07-20T02:28:19;28.43;55.34
65478;SHT31;53678;39.642;22.430;2023-07-20T02:30:45;28.47;55.06
65478;SHT31;53678;39.642;22.430;2023-07-20T02:33:11;28.17;56.93
65478;SHT31;53678;39.642;22.430;2023-07-20T02:35:37;27.80;58.10
65478;SHT31;53678;39.642;22.430;2023-07-20T02:38:02;27.52;60.67
65478;SHT31;53678;39.642;22.430;2023-07-20T02:40:28;27.54;60.71
65478;SHT31;53678;39.642;22.430;2023-07-20T02:42:54;27.66;60.07
65478;SHT31;53678;39.642;22.430;2023-07-20T02:45:20;27.64;60.26
65478;SHT31;53678;39.642;22.430;2023-07-20T02:47:46;27.65;59.93
65478;SHT31;53678;39.642;22.430;2023-07-20T02:50:12;27.64;59.81
65478;SHT31;53678;39.642;22.430;2023-07-20T02:52:39;27.57;60.09
65478;SHT31;53678;39.642;22.430;2023-07-20T02:55:05;27.55;60.29
65478;SHT31;53678;39.642;22.430;2023-07-20T02:57:31;27.52;60.28
65478;SHT31;53678;39.642;22.430;2023-07-20T02:59:57;27.44;60.00
65478;SHT31;53678;39.642;22.430;2023-07-20T03:02:22;27.45;60.00
65478;SHT31;53678;39.642;22.430;2023-07-20T03:04:48;27.47;59.90
65478;SHT31;53678;39.642;22.430;2023-07-20T03:07:14;27.50;58.65
65478;SHT31;53678;39.642;22.430;2023-07-20T03:09:40;27.57;58.03
65478;SHT31;53678;39.642;22.430;2023-07-20T03:12:06;27.55;57.57
65478;SHT31;53678;39.642;22.430;2023-07-20T03:14:32;27.71;56.73
65478;SHT31;53678;39.642;22.430;2023-07-20T03:16:58;27.84;56.06
65478;SHT31;53678;39.642;22.430;2023-07-20T03:19:24;27.92;54.89
65478;SHT31;53678;39.642;22.430;2023-07-20T03:21:50;28.06;54.95
65478;SHT31;53678;39.642;22.430;2023-07-20T03:24:15;28.17;54.74
65478;SHT31;53678;39.642;22.430;2023-07-20T03:26:41;28.26;53.87
65478;SHT31;53678;39.642;22.430;2023-07-20T03:29:07;28.27;53.92
65478;SHT31;53678;39.642;22.430;2023-07-20T03:31:33;28.44;54.21
65478;SHT31;53678;39.642;22.430;2023-07-20T03:33:59;28.50;54.37
65478;SHT31;53678;39.642;22.430;2023-07-20T03:36:25;28.50;54.15
65478;SHT31;53678;39.642;22.430;2023-07-20T03:38:50;28.50;53.82
65478;SHT31;53678;39.642;22.430;2023-07-20T03:41:16;28.61;53.79
65478;SHT31;53678;39.642;22.430;2023-07-20T03:43:42;28.65;53.37
65478;SHT31;53678;39.642;22.430;2023-07-20T03:46:08;28.75;53.24
65478;SHT31;53678;39.642;22.430;2023-07-20T03:48:34;28.82;53.30
65478;SHT31;53678;39.642;22.430;2023-07-20T03:50:59;28.95;53.17
65478;SHT31;53678;39.642;22.430;2023-07-20T03:53:28;29.11;53.08
65478;SHT31;53678;39.642;22.430;2023-07-20T03:55:54;29.36;52.66
65478;SHT31;53678;39.642;22.430;2023-07-20T03:58:20;29.05;53.28
65478;SHT31;53678;39.642;22.430;2023-07-20T04:00:49;29.07;53.54
65478;SHT31;53678;39.642;22.430;2023-07-20T04:03:16;29.32;52.86
65478;SHT31;53678;39.642;22.430;2023-07-20T04:05:42;28.99;53.50
65478;SHT31;53678;39.642;22.430;2023-07-20T04:08:08;29.60;52.91
65478;SHT31;53678;39.642;22.430;2023-07-20T04:10:35;29.20;55.30
65478;SHT31;53678;39.642;22.430;2023-07-20T04:13:01;28.27;58.44
65478;SHT31;53678;39.642;22.430;2023-07-20T04:15:27;27.23;58.72
65478;SHT31;53678;39.642;22.430;2023-07-20T04:17:53;27.51;57.95
65478;SHT31;53678;39.642;22.430;2023-07-20T04:20:19;28.59;55.54
65478;SHT31;53678;39.642;22.430;2023-07-20T04:22:44;29.22;54.75
65478;SHT31;53678;39.642;22.430;2023-07-20T04:25:13;29.18;54.99
65478;SHT31;53678;39.642;22.430;2023-07-20T04:27:39;29.91;54.64
65478;SHT31;53678;39.642;22.430;2023-07-20T04:30:07;30.17;53.32
65478;SHT31;53678;39.642;22.430;2023-07-20T04:32:33;28.80;58.70
65478;SHT31;53678;39.642;22.430;2023-07-20T04:35:01;27.71;61.52
65478;SHT31;53678;39.642;22.430;2023-07-20T04:37:31;28.01;60.27
65478;SHT31;53678;39.642;22.430;2023-07-20T04:39:59;28.90;58.56
65478;SHT31;53678;39.642;22.430;2023-07-20T04:42:25;29.57;55.98
65478;SHT31;53678;39.642;22.430;2023-07-20T04:44:50;29.74;56.23
65478;SHT31;53678;39.642;22.430;2023-07-20T04:47:16;29.88;55.94
65478;SHT31;53678;39.642;22.430;2023-07-20T04:49:42;30.52;55.04
65478;SHT31;53678;39.642;22.430;2023-07-20T04:52:07;30.11;55.76
65478;SHT31;53678;39.642;22.430;2023-07-20T04:54:33;30.32;53.17
65478;SHT31;53678;39.642;22.430;2023-07-20T04:56:59;30.31;54.54
65478;SHT31;53678;39.642;22.430;2023-07-20T04:59:25;31.54;52.48
65478;SHT31;53678;39.642;22.430;2023-07-20T05:01:51;32.49;51.13
65478;SHT31;53678;39.642;22.430;2023-07-20T05:04:17;32.60;50.28
65478;SHT31;53678;39.642;22.430;2023-07-20T05:06:42;32.95;48.58
65478;SHT31;53678;39.642;22.430;2023-07-20T05:09:09;32.43;50.31
65478;SHT31;53678;39.642;22.430;2023-07-20T05:11:34;32.49;50.00
65478;SHT31;53678;39.642;22.430;2023-07-20T05:14:01;33.43;48.19
65478;SHT31;53678;39.642;22.430;2023-07-20T05:16:27;34.23;46.92
65478;SHT31;53678;39.642;22.430;2023-07-20T05:18:58;34.09;46.94
65478;SHT31;53678;39.642;22.430;2023-07-20T05:21:24;33.15;47.80
65478;SHT31;53678;39.642;22.430;2023-07-20T05:23:50;33.62;47.56
65478;SHT31;53678;39.642;22.430;2023-07-20T05:26:16;32.97;48.54
65478;SHT31;53678;39.642;22.430;2023-07-20T05:28:41;32.61;49.35
65478;SHT31;53678;39.642;22.430;2023-07-20T05:31:07;32.90;48.92
65478;SHT31;53678;39.642;22.430;2023-07-20T05:33:33;33.39;48.26
65478;SHT31;53678;39.642;22.430;2023-07-20T05:35:58;33.29;48.90
65478;SHT31;53678;39.642;22.430;2023-07-20T05:38:24;32.80;48.94
65478;SHT31;53678;39.642;22.430;2023-07-20T05:40:50;32.63;49.75
65478;SHT31;53678;39.642;22.430;2023-07-20T05:43:16;32.29;49.60
65478;SHT31;53678;39.642;22.430;2023-07-20T05:45:42;32.16;50.74
65478;SHT31;53678;39.642;22.430;2023-07-20T05:48:08;31.71;51.76
65478;SHT31;53678;39.642;22.430;2023-07-20T05:50:37;31.69;51.69
65478;SHT31;53678;39.642;22.430;2023-07-20T05:53:04;32.06;49.54
65478;SHT31;53678;39.642;22.430;2023-07-20T05:55:31;32.10;50.62
65478;SHT31;53678;39.642;22.430;2023-07-20T05:57:56;32.57;48.77
65478;SHT31;53678;39.642;22.430;2023-07-20T06:00:22;32.64;48.78
65478;SHT31;53678;39.642;22.430;2023-07-20T06:02:52;32.63;49.64
65478;SHT31;53678;39.642;22.430;2023-07-20T06:05:19;33.28;47.83
65478;SHT31;53678;39.642;22.430;2023-07-20T06:07:46;33.35;48.08
65478;SHT31;53678;39.642;22.430;2023-07-20T06:10:12;33.26;47.65
65478;SHT31;53678;39.642;22.430;2023-07-20T06:12:37;33.88;46.77
65478;SHT31;53678;39.642;22.430;2023-07-20T06:15:05;33.90;45.69
65478;SHT31;53678;39.642;22.430;2023-07-20T06:17:31;33.88;45.75
65478;SHT31;53678;39.642;22.430;2023-07-20T06:19:57;34.04;46.70
65478;SHT31;53678;39.642;22.430;2023-07-20T06:22:22;33.76;46.05
65478;SHT31;53678;39.642;22.430;2023-07-20T06:24:48;33.99;45.81
65478;SHT31;53678;39.642;22.430;2023-07-20T06:27:14;34.25;44.44
65478;SHT31;53678;39.642;22.430;2023-07-20T06:29:40;34.10;44.44
65478;SHT31;53678;39.642;22.430;2023-07-20T06:32:06;34.11;44.96
65478;SHT31;53678;39.642;22.430;2023-07-20T06:34:32;34.58;44.63
65478;SHT31;53678;39.642;22.430;2023-07-20T06:37:03;34.92;43.81
65478;SHT31;53678;39.642;22.430;2023-07-20T06:39:29;34.41;43.13
65478;SHT31;53678;39.642;22.430;2023-07-20T06:41:55;34.81;43.26
65478;SHT31;53678;39.642;22.430;2023-07-20T06:44:21;34.89;42.79
65478;SHT31;53678;39.642;22.430;2023-07-20T06:46:46;35.07;41.93
65478;SHT31;53678;39.642;22.430;2023-07-20T06:49:24;35.07;42.08
65478;SHT31;53678;39.642;22.430;2023-07-20T06:51:50;35.51;41.53
65478;SHT31;53678;39.642;22.430;2023-07-20T06:54:15;35.54;41.09
65478;SHT31;53678;39.642;22.430;2023-07-20T06:56:41;35.46;40.41
65478;SHT31;53678;39.642;22.430;2023-07-20T06:59:07;36.01;40.06
65478;SHT31;53678;39.642;22.430;2023-07-20T07:01:33;35.63;40.40
65478;SHT31;53678;39.642;22.430;2023-07-20T07:03:58;35.63;40.50
65478;SHT31;53678;39.642;22.430;2023-07-20T07:06:24;34.86;41.25
65478;SHT31;53678;39.642;22.430;2023-07-20T07:08:50;34.82;41.01
65478;SHT31;53678;39.642;22.430;2023-07-20T07:11:16;35.36;40.33
65478;SHT31;53678;39.642;22.430;2023-07-20T07:13:42;35.60;40.08
65478;SHT31;53678;39.642;22.430;2023-07-20T07:16:08;35.46;40.57
65478;SHT31;53678;39.642;22.430;2023-07-20T07:18:34;35.50;40.76
65478;SHT31;53678;39.642;22.430;2023-07-20T07:20:59;35.73;40.28
65478;SHT31;53678;39.642;22.430;2023-07-20T07:23:25;36.06;40.50
65478;SHT31;53678;39.642;22.430;2023-07-20T07:25:51;36.06;39.68
65478;SHT31;53678;39.642;22.430;2023-07-20T07:28:17;36.36;39.32
65478;SHT31;53678;39.642;22.430;2023-07-20T07:30:43;36.60;39.11
65478;SHT31;53678;39.642;22.430;2023-07-20T07:33:08;36.27;39.37
65478;SHT31;53678;39.642;22.430;2023-07-20T07:35:36;36.36;39.56
65478;SHT31;53678;39.642;22.430;2023-07-20T07:38:01;36.29;39.64
65478;SHT31;53678;39.642;22.430;2023-07-20T07:40:27;36.73;39.18
65478;SHT31;53678;39.642;22.430;2023-07-20T07:42:53;36.96;39.19
65478;SHT31;53678;39.642;22.430;2023-07-20T07:45:19;36.69;39.33
65478;SHT31;53678;39.642;22.430;2023-07-20T07:47:45;36.00;40.18
65478;SHT31;53678;39.642;22.430;2023-07-20T07:50:11;35.43;40.77
65478;SHT31;53678;39.642;22.430;2023-07-20T07:52:37;35.80;40.25
65478;SHT31;53678;39.642;22.430;2023-07-20T07:55:03;36.41;39.70
65478;SHT31;53678;39.642;22.430;2023-07-20T07:57:29;36.91;38.88
65478;SHT31;53678;39.642;22.430;2023-07-20T07:59:55;36.87;38.98
65478;SHT31;53678;39.642;22.430;2023-07-20T08:02:21;36.86;38.94
65478;SHT31;53678;39.642;22.430;2023-07-20T08:04:47;36.39;39.54
65478;SHT31;53678;39.642;22.430;2023-07-20T08:07:13;36.89;39.44
65478;SHT31;53678;39.642;22.430;2023-07-20T08:09:45;36.79;39.07
65478;SHT31;53678;39.642;22.430;2023-07-20T08:12:11;36.78;39.11
65478;SHT31;53678;39.642;22.430;2023-07-20T08:14:38;37.21;38.83
65478;SHT31;53678;39.642;22.430;2023-07-20T08:17:04;37.14;38.80
65478;SHT31;53678;39.642;22.430;2023-07-20T08:19:30;37.06;38.59
65478;SHT31;53678;39.642;22.430;2023-07-20T08:21:56;37.39;38.34
65478;SHT31;53678;39.642;22.430;2023-07-20T08:24:22;37.57;38.02
65478;SHT31;53678;39.642;22.430;2023-07-20T08:26:48;37.78;37.60
65478;SHT31;53678;39.642;22.430;2023-07-20T08:29:14;37.95;37.38
65478;SHT31;53678;39.642;22.430;2023-07-20T08:31:40;37.74;37.81
65478;SHT31;53678;39.642;22.430;2023-07-20T08:34:06;37.85;37.88
65478;SHT31;53678;39.642;22.430;2023-07-20T08:36:31;37.55;37.88
65478;SHT31;53678;39.642;22.430;2023-07-20T08:38:57;37.20;38.17
65478;SHT31;53678;39.642;22.430;2023-07-20T08:41:23;37.84;37.67
65478;SHT31;53678;39.642;22.430;2023-07-20T08:43:49;37.55;37.78
65478;SHT31;53678;39.642;22.430;2023-07-20T08:46:16;37.49;38.21
65478;SHT31;53678;39.642;22.430;2023-07-20T08:48:42;38.06;37.47
65478;SHT31;53678;39.642;22.430;2023-07-20T08:51:10;38.12;37.35
65478;SHT31;53678;39.642;22.430;2023-07-20T08:53:36;38.34;37.21
65478;SHT31;53678;39.642;22.430;2023-07-20T08:56:03;38.85;36.82
65478;SHT31;53678;39.642;22.430;2023-07-20T08:58:29;38.70;36.66
65478;SHT31;53678;39.642;22.430;2023-07-20T09:00:56;37.60;37.68
65478;SHT31;53678;39.642;22.430;2023-07-20T09:03:24;37.48;37.86
65478;SHT31;53678;39.642;22.430;2023-07-20T09:05:50;37.95;37.63
65478;SHT31;53678;39.642;22.430;2023-07-20T09:08:16;38.27;37.25
65478;SHT31;53678;39.642;22.430;2023-07-20T09:10:42;38.49;36.99
65478;SHT31;53678;39.642;22.430;2023-07-20T09:13:08;38.67;36.54
65478;SHT31;53678;39.642;22.430;2023-07-20T09:15:34;38.88;36.75
65478;SHT31;53678;39.642;22.430;2023-07-20T09:18:02;38.75;36.41
65478;SHT31;53678;39.642;22.430;2023-07-20T09:20:31;39.01;36.28
65478;SHT31;53678;39.642;22.430;2023-07-20T09:22:57;39.15;36.28
65478;SHT31;53678;39.642;22.430;2023-07-20T09:25:23;38.68;36.50
65478;SHT31;53678;39.642;22.430;2023-07-20T09:27:49;38.08;37.29
65478;SHT31;53678;39.642;22.430;2023-07-20T09:30:16;37.39;38.74
65478;SHT31;53678;39.642;22.430;2023-07-20T09:35:18;37.93;38.03
65478;SHT31;53678;39.642;22.430;2023-07-20T09:37:59;37.58;38.06
65478;SHT31;53678;39.642;22.430;2023-07-20T09:40:28;37.39;38.46
65478;SHT31;53678;39.642;22.430;2023-07-20T09:42:55;37.85;37.79
65478;SHT31;53678;39.642;22.430;2023-07-20T09:45:39;37.78;37.92
65478;SHT31;53678;39.642;22.430;2023-07-20T09:48:09;38.05;38.15
65478;SHT31;53678;39.642;22.430;2023-07-20T09:50:40;38.32;37.76
65478;SHT31;53678;39.642;22.430;2023-07-20T09:53:09;38.49;37.75
65478;SHT31;53678;39.642;22.430;2023-07-20T09:55:37;38.33;37.42
65478;SHT31;53678;39.642;22.430;2023-07-20T09:58:04;38.13;37.66
65478;SHT31;53678;39.642;22.430;2023-07-20T10:00:33;38.22;37.57
65478;SHT31;53678;39.642;22.430;2023-07-20T10:03:03;38.52;37.59
65478;SHT31;53678;39.642;22.430;2023-07-20T10:05:32;38.71;37.06
65478;SHT31;53678;39.642;22.430;2023-07-20T10:08:01;38.63;36.99
65478;SHT31;53678;39.642;22.430;2023-07-20T10:10:28;38.57;37.26
65478;SHT31;53678;39.642;22.430;2023-07-20T10:12:57;37.89;37.90
65478;SHT31;53678;39.642;22.430;2023-07-20T10:15:30;38.17;37.60
65478;SHT31;53678;39.642;22.430;2023-07-20T10:18:07;38.15;37.61
65478;SHT31;53678;39.642;22.430;2023-07-20T10:20:36;38.16;37.94
65478;SHT31;53678;39.642;22.430;2023-07-20T10:23:03;37.96;38.21
65478;SHT31;53678;39.642;22.430;2023-07-20T10:25:30;38.24;37.74
65478;SHT31;53678;39.642;22.430;2023-07-20T10:27:57;38.57;37.43
65478;SHT31;53678;39.642;22.430;2023-07-20T10:30:24;38.71;37.07
65478;SHT31;53678;39.642;22.430;2023-07-20T10:32:51;38.46;37.03
65478;SHT31;53678;39.642;22.430;2023-07-20T10:35:18;38.78;36.74
65478;SHT31;53678;39.642;22.430;2023-07-20T10:37:52;38.95;37.12
65478;SHT31;53678;39.642;22.430;2023-07-20T10:43:01;39.00;36.69
65478;SHT31;53678;39.642;22.430;2023-07-20T10:45:41;38.73;36.92
65478;SHT31;53678;39.642;22.430;2023-07-20T10:50:45;38.41;36.59
65478;SHT31;53678;39.642;22.430;2023-07-20T10:53:16;38.66;36.78
65478;SHT31;53678;39.642;22.430;2023-07-20T10:55:42;39.00;36.14
65478;SHT31;53678;39.642;22.430;2023-07-20T10:58:14;39.17;35.52
65478;SHT31;53678;39.642;22.430;2023-07-20T11:01:00;39.12;35.72
65478;SHT31;53678;39.642;22.430;2023-07-20T11:03:28;39.58;35.85
65478;SHT31;53678;39.642;22.430;2023-07-20T11:05:56;39.80;35.59
65478;SHT31;53678;39.642;22.430;2023-07-20T11:08:41;39.04;35.94
65478;SHT31;53678;39.642;22.430;2023-07-20T11:16:36;39.68;35.38
65478;SHT31;53678;39.642;22.430;2023-07-20T11:19:04;39.92;35.15
65478;SHT31;53678;39.642;22.430;2023-07-20T11:21:36;40.07;34.72
65478;SHT31;53678;39.642;22.430;2023-07-20T11:24:06;39.93;34.61
65478;SHT31;53678;39.642;22.430;2023-07-20T11:26:47;40.03;34.12
65478;SHT31;53678;39.642;22.430;2023-07-20T11:29:13;39.63;34.51
65478;SHT31;53678;39.642;22.430;2023-07-20T11:31:41;39.56;35.12
65478;SHT31;53678;39.642;22.430;2023-07-20T11:34:14;39.79;34.20
65478;SHT31;53678;39.642;22.430;2023-07-20T11:36:46;39.74;34.17
65478;SHT31;53678;39.642;22.430;2023-07-20T11:39:13;39.66;34.24
65478;SHT31;53678;39.642;22.430;2023-07-20T11:41:46;40.06;33.88
65478;SHT31;53678;39.642;22.430;2023-07-20T11:44:12;40.31;33.43
65478;SHT31;53678;39.642;22.430;2023-07-20T11:46:44;40.45;33.43
65478;SHT31;53678;39.642;22.430;2023-07-20T11:49:12;40.69;33.22
65478;SHT31;53678;39.642;22.430;2023-07-20T11:51:39;40.83;33.23
65478;SHT31;53678;39.642;22.430;2023-07-20T11:54:07;40.92;33.23
65478;SHT31;53678;39.642;22.430;2023-07-20T11:56:33;40.82;32.90
65478;SHT31;53678;39.642;22.430;2023-07-20T11:59:00;40.79;33.09
65478;SHT31;53678;39.642;22.430;2023-07-20T12:01:28;40.96;32.63
65478;SHT31;53678;39.642;22.430;2023-07-20T12:03:56;41.03;32.52
65478;SHT31;53678;39.642;22.430;2023-07-20T12:06:26;41.12;32.56
65478;SHT31;53678;39.642;22.430;2023-07-20T12:08:57;40.74;32.50
65478;SHT31;53678;39.642;22.430;2023-07-20T12:11:32;40.40;32.83
65478;SHT31;53678;39.642;22.430;2023-07-20T12:13:58;40.24;32.43
65478;SHT31;53678;39.642;22.430;2023-07-20T12:16:27;40.14;32.09
65478;SHT31;53678;39.642;22.430;2023-07-20T12:19:04;40.26;32.56
65478;SHT31;53678;39.642;22.430;2023-07-20T12:21:31;40.43;33.31
65478;SHT31;53678;39.642;22.430;2023-07-20T12:23:58;40.37;32.94
65478;SHT31;53678;39.642;22.430;2023-07-20T12:26:25;40.61;32.85
65478;SHT31;53678;39.642;22.430;2023-07-20T12:28:51;40.55;33.11
65478;SHT31;53678;39.642;22.430;2023-07-20T12:31:17;40.51;33.22
65478;SHT31;53678;39.642;22.430;2023-07-20T12:33:43;40.78;33.00
65478;SHT31;53678;39.642;22.430;2023-07-20T12:36:10;40.75;31.83
65478;SHT31;53678;39.642;22.430;2023-07-20T12:38:36;41.09;31.51
65478;SHT31;53678;39.642;22.430;2023-07-20T12:41:02;41.26;31.70
65478;SHT31;53678;39.642;22.430;2023-07-20T12:43:28;41.50;31.26
65478;SHT31;53678;39.642;22.430;2023-07-20T12:45:55;41.30;31.41
65478;SHT31;53678;39.642;22.430;2023-07-20T12:48:21;41.40;31.48
65478;SHT31;53678;39.642;22.430;2023-07-20T12:50:48;41.64;31.54
65478;SHT31;53678;39.642;22.430;2023-07-20T12:53:14;41.54;30.76
65478;SHT31;53678;39.642;22.430;2023-07-20T12:55:40;41.69;30.90
65478;SHT31;53678;39.642;22.430;2023-07-20T12:58:10;41.54;30.84
65478;SHT31;53678;39.642;22.430;2023-07-20T13:00:36;41.19;31.08
65478;SHT31;53678;39.642;22.430;2023-07-20T13:03:01;40.82;30.82
65478;SHT31;53678;39.642;22.430;2023-07-20T13:05:31;40.44;30.77
65478;SHT31;53678;39.642;22.430;2023-07-20T13:08:00;40.72;30.94
65478;SHT31;53678;39.642;22.430;2023-07-20T13:10:26;40.72;31.32
65478;SHT31;53678;39.642;22.430;2023-07-20T13:12:52;41.05;30.85
65478;SHT31;53678;39.642;22.430;2023-07-20T13:15:18;41.13;30.32
65478;SHT31;53678;39.642;22.430;2023-07-20T13:17:44;41.12;30.47
65478;SHT31;53678;39.642;22.430;2023-07-20T13:20:11;41.44;30.28
65478;SHT31;53678;39.642;22.430;2023-07-20T13:22:38;41.61;30.16
65478;SHT31;53678;39.642;22.430;2023-07-20T13:25:04;41.74;30.00
65478;SHT31;53678;39.642;22.430;2023-07-20T13:27:30;41.87;29.21
65478;SHT31;53678;39.642;22.430;2023-07-20T13:29:58;41.88;28.69
65478;SHT31;53678;39.642;22.430;2023-07-20T13:32:23;41.76;28.46
65478;SHT31;53678;39.642;22.430;2023-07-20T13:34:49;41.84;29.21
65478;SHT31;53678;39.642;22.430;2023-07-20T13:37:15;41.61;28.78
65478;SHT31;53678;39.642;22.430;2023-07-20T13:39:41;41.66;28.88
65478;SHT31;53678;39.642;22.430;2023-07-20T13:42:07;41.56;29.13
65478;SHT31;53678;39.642;22.430;2023-07-20T13:44:34;41.58;28.61
65478;SHT31;53678;39.642;22.430;2023-07-20T13:47:01;41.64;28.40
65478;SHT31;53678;39.642;22.430;2023-07-20T13:49:28;41.43;28.94
65478;SHT31;53678;39.642;22.430;2023-07-20T13:51:53;41.58;29.89
65478;SHT31;53678;39.642;22.430;2023-07-20T13:54:19;41.54;32.99
65478;SHT31;53678;39.642;22.430;2023-07-20T13:56:45;41.37;32.96
65478;SHT31;53678;39.642;22.430;2023-07-20T13:59:11;41.06;33.32
65478;SHT31;53678;39.642;22.430;2023-07-20T14:01:37;41.20;32.56
65478;SHT31;53678;39.642;22.430;2023-07-20T14:04:02;41.67;30.75
65478;SHT31;53678;39.642;22.430;2023-07-20T14:06:32;41.81;31.81
65478;SHT31;53678;39.642;22.430;2023-07-20T14:08:59;41.64;31.07
65478;SHT31;53678;39.642;22.430;2023-07-20T14:11:25;41.78;31.68
65478;SHT31;53678;39.642;22.430;2023-07-20T14:13:52;41.67;32.99
65478;SHT31;53678;39.642;22.430;2023-07-20T14:16:21;41.77;32.41
65478;SHT31;53678;39.642;22.430;2023-07-20T14:18:48;41.67;31.99
65478;SHT31;53678;39.642;22.430;2023-07-20T14:21:15;41.56;32.75
65478;SHT31;53678;39.642;22.430;2023-07-20T14:23:41;41.50;32.74
65478;SHT31;53678;39.642;22.430;2023-07-20T14:26:06;41.51;32.78
65478;SHT31;53678;39.642;22.430;2023-07-20T14:28:35;41.56;32.12
65478;SHT31;53678;39.642;22.430;2023-07-20T14:31:01;41.73;32.36
65478;SHT31;53678;39.642;22.430;2023-07-20T14:33:26;41.53;32.12
65478;SHT31;53678;39.642;22.430;2023-07-20T14:35:52;41.36;32.24
65478;SHT31;53678;39.642;22.430;2023-07-20T14:38:18;41.39;32.96
65478;SHT31;53678;39.642;22.430;2023-07-20T14:40:44;41.36;32.30
65478;SHT31;53678;39.642;22.430;2023-07-20T14:43:10;41.34;31.91
65478;SHT31;53678;39.642;22.430;2023-07-20T14:45:36;41.34;31.85
65478;SHT31;53678;39.642;22.430;2023-07-20T14:48:03;41.32;31.39
65478;SHT31;53678;39.642;22.430;2023-07-20T14:50:29;41.29;31.63
65478;SHT31;53678;39.642;22.430;2023-07-20T14:52:55;41.39;31.57
65478;SHT31;53678;39.642;22.430;2023-07-20T14:55:21;41.50;31.64
65478;SHT31;53678;39.642;22.430;2023-07-20T14:57:48;41.25;31.40
65478;SHT31;53678;39.642;22.430;2023-07-20T15:00:14;40.82;31.91
65478;SHT31;53678;39.642;22.430;2023-07-20T15:02:40;40.51;32.20
65478;SHT31;53678;39.642;22.430;2023-07-20T15:05:07;40.44;32.38
65478;SHT31;53678;39.642;22.430;2023-07-20T15:07:33;40.52;32.23
65478;SHT31;53678;39.642;22.430;2023-07-20T15:10:00;40.47;32.50
65478;SHT31;53678;39.642;22.430;2023-07-20T15:12:26;40.27;32.60
65478;SHT31;53678;39.642;22.430;2023-07-20T15:15:08;40.17;32.69
65478;SHT31;53678;39.642;22.430;2023-07-20T15:17:36;40.10;33.06
65478;SHT31;53678;39.642;22.430;2023-07-20T15:20:04;40.17;33.35
65478;SHT31;53678;39.642;22.430;2023-07-20T15:22:34;40.11;33.19
65478;SHT31;53678;39.642;22.430;2023-07-20T15:25:04;40.18;33.24
65478;SHT31;53678;39.642;22.430;2023-07-20T15:27:30;40.27;32.82
65478;SHT31;53678;39.642;22.430;2023-07-20T15:29:57;40.27;33.04
65478;SHT31;53678;39.642;22.430;2023-07-20T15:32:22;40.13;33.05
65478;SHT31;53678;39.642;22.430;2023-07-20T15:34:48;40.06;33.36
65478;SHT31;53678;39.642;22.430;2023-07-20T15:37:14;40.08;33.39